createdAt,value
2022-07-25T00:00:14.469Z,100
2022-07-25T00:01:14.489Z,100
2022-07-25T00:02:14.171Z,100
2022-07-25T00:03:14.151Z,100
2022-07-25T00:04:15.292Z,100
2022-07-25T00:05:15.286Z,100
2022-07-25T00:06:17.772Z,100
2022-07-25T00:07:15.331Z,100
2022-07-25T00:08:15.566Z,100
2022-07-25T00:09:15.316Z,100
2022-07-25T00:10:15.698Z,100
2022-07-25T00:11:15.394Z,100
2022-07-25T00:12:15.358Z,100
2022-07-25T00:13:15.358Z,100
2022-07-25T00:14:15.503Z,100
2022-07-25T00:15:15.741Z,100
2022-07-25T00:16:15.487Z,100
2022-07-25T00:17:15.479Z,100
2022-07-25T00:18:15.475Z,100
2022-07-25T00:19:15.597Z,100
2022-07-25T00:20:15.498Z,100
2022-07-25T00:21:15.493Z,100
2022-07-25T00:22:15.704Z,100
2022-07-25T00:23:15.503Z,100
2022-07-25T00:24:15.598Z,100
2022-07-25T00:25:15.540Z,100
2022-07-25T00:26:15.525Z,100
2022-07-25T00:27:15.585Z,100
2022-07-25T00:28:15.648Z,100
2022-07-25T00:29:15.762Z,100
2022-07-25T00:30:15.751Z,100
2022-07-25T00:31:15.719Z,100
2022-07-25T00:32:15.631Z,100
2022-07-25T00:33:15.642Z,100
2022-07-25T00:34:15.738Z,100
2022-07-25T00:35:15.699Z,100
2022-07-25T00:36:15.735Z,100
2022-07-25T00:37:15.700Z,100
2022-07-25T00:38:15.748Z,100
2022-07-25T00:39:15.769Z,100
2022-07-25T00:40:15.932Z,100
2022-07-25T00:41:15.789Z,100
2022-07-25T00:42:15.814Z,100
2022-07-25T00:43:15.984Z,100
2022-07-25T00:44:28.940Z,100
2022-07-25T00:45:20.674Z,100
2022-07-25T00:46:20.740Z,100
2022-07-25T00:47:20.732Z,100
2022-07-25T00:48:20.691Z,100
2022-07-25T00:49:20.905Z,100
2022-07-25T00:50:20.779Z,100
2022-07-25T00:51:20.794Z,100
2022-07-25T00:52:20.735Z,100
2022-07-25T00:53:21.129Z,100
2022-07-25T00:54:21.072Z,100
2022-07-25T00:55:21.315Z,100
2022-07-25T00:56:20.801Z,100
2022-07-25T00:57:20.807Z,100
2022-07-25T00:58:20.848Z,100
2022-07-25T00:59:20.861Z,100
2022-07-25T01:00:20.951Z,100
2022-07-25T01:01:21.031Z,100
2022-07-25T01:02:21.033Z,100
2022-07-25T01:03:21.145Z,100
2022-07-25T01:04:20.923Z,100
2022-07-25T01:05:20.873Z,100
2022-07-25T01:06:21.668Z,100
2022-07-25T01:07:21.830Z,100
2022-07-25T01:08:21.940Z,100
2022-07-25T01:09:21.916Z,100
2022-07-25T01:10:21.559Z,100
2022-07-25T01:11:21.931Z,100
2022-07-25T01:12:21.611Z,100
2022-07-25T01:13:21.654Z,100
2022-07-25T01:14:21.968Z,100
2022-07-25T01:15:22.798Z,100
2022-07-25T01:16:21.912Z,100
2022-07-25T01:17:21.638Z,100
2022-07-25T01:18:21.620Z,100
2022-07-25T01:19:21.683Z,100
2022-07-25T01:20:22.726Z,100
2022-07-25T01:21:23.310Z,100
2022-07-25T01:22:21.719Z,100
2022-07-25T01:23:21.739Z,100
2022-07-25T01:24:21.733Z,100
2022-07-25T01:25:22.235Z,100
2022-07-25T01:26:21.799Z,100
2022-07-25T01:27:21.775Z,100
2022-07-25T01:28:21.801Z,100
2022-07-25T01:29:21.883Z,100
2022-07-25T01:30:23.203Z,100
2022-07-25T01:31:21.905Z,100
2022-07-25T01:32:21.853Z,100
2022-07-25T01:33:21.902Z,100
2022-07-25T01:34:21.955Z,100
2022-07-25T01:35:21.953Z,100
2022-07-25T01:36:21.876Z,100
2022-07-25T01:37:21.903Z,100
2022-07-25T01:38:22.096Z,100
2022-07-25T01:39:21.916Z,100
2022-07-25T01:40:22.030Z,100
2022-07-25T01:41:22.117Z,100
2022-07-25T01:42:22.059Z,100
2022-07-25T01:43:22.133Z,100
2022-07-25T01:44:21.959Z,100
2022-07-25T01:45:22.058Z,100
2022-07-25T01:46:22.177Z,100
2022-07-25T01:47:22.219Z,100
2022-07-25T01:48:22.131Z,100
2022-07-25T01:49:22.007Z,100
2022-07-25T01:50:22.062Z,100
2022-07-25T01:51:22.118Z,100
2022-07-25T01:52:22.080Z,100
2022-07-25T01:53:22.150Z,100
2022-07-25T01:54:22.092Z,100
2022-07-25T01:55:22.305Z,100
2022-07-25T01:56:22.504Z,100
2022-07-25T01:57:22.169Z,100
2022-07-25T01:58:22.236Z,100
2022-07-25T01:59:22.214Z,100
2022-07-25T02:00:22.272Z,100
2022-07-25T02:01:22.680Z,100
2022-07-25T02:02:22.278Z,100
2022-07-25T02:03:22.328Z,100
2022-07-25T02:04:22.356Z,100
2022-07-25T02:05:22.285Z,100
2022-07-25T02:06:22.374Z,100
2022-07-25T02:07:22.283Z,100
2022-07-25T02:08:22.487Z,100
2022-07-25T02:09:22.327Z,100
2022-07-25T02:10:22.316Z,100
2022-07-25T02:11:22.355Z,100
2022-07-25T02:12:22.346Z,100
2022-07-25T02:13:22.417Z,100
2022-07-25T02:14:22.683Z,100
2022-07-25T02:15:22.399Z,100
2022-07-25T02:16:28.789Z,100
2022-07-25T02:17:26.267Z,100
2022-07-25T02:18:26.290Z,100
2022-07-25T02:19:26.180Z,100
2022-07-25T02:20:26.241Z,100
2022-07-25T02:21:26.224Z,100
2022-07-25T02:22:26.195Z,100
2022-07-25T02:23:26.339Z,100
2022-07-25T02:24:26.452Z,100
2022-07-25T02:25:26.205Z,100
2022-07-25T02:26:26.313Z,100
2022-07-25T02:27:26.266Z,100
2022-07-25T02:28:26.302Z,100
2022-07-25T02:29:26.430Z,100
2022-07-25T02:30:26.378Z,100
2022-07-25T02:31:26.416Z,100
2022-07-25T02:32:26.347Z,100
2022-07-25T02:33:26.564Z,100
2022-07-25T02:34:26.397Z,100
2022-07-25T02:35:26.438Z,100
2022-07-25T02:36:26.457Z,100
2022-07-25T02:37:26.472Z,100
2022-07-25T02:38:26.452Z,100
2022-07-25T02:39:26.575Z,100
2022-07-25T02:40:26.842Z,100
2022-07-25T02:41:26.488Z,100
2022-07-25T02:42:26.533Z,100
2022-07-25T02:43:26.641Z,100
2022-07-25T02:44:26.626Z,100
2022-07-25T02:45:26.551Z,100
2022-07-25T02:46:26.605Z,100
2022-07-25T02:47:26.595Z,100
2022-07-25T02:48:26.701Z,100
2022-07-25T02:49:26.662Z,100
2022-07-25T02:50:26.824Z,100
2022-07-25T02:51:26.732Z,100
2022-07-25T02:52:26.690Z,100
2022-07-25T02:53:47.225Z,100
2022-07-25T02:54:27.853Z,100
2022-07-25T02:55:27.869Z,100
2022-07-25T02:56:30.068Z,100
2022-07-25T02:57:28.014Z,100
2022-07-25T02:58:27.924Z,100
2022-07-25T02:59:32.397Z,100
2022-07-25T03:00:28.738Z,100
2022-07-25T03:01:28.999Z,100
2022-07-25T03:02:28.754Z,100
2022-07-25T03:03:28.965Z,100
2022-07-25T03:04:28.904Z,100
2022-07-25T03:05:28.986Z,100
2022-07-25T03:06:28.858Z,100
2022-07-25T03:07:28.888Z,100
2022-07-25T03:08:28.853Z,100
2022-07-25T03:09:28.922Z,100
2022-07-25T03:10:28.881Z,100
2022-07-25T03:11:28.889Z,100
2022-07-25T03:12:28.964Z,100
2022-07-25T03:13:28.935Z,100
2022-07-25T03:14:29.000Z,100
2022-07-25T03:15:28.989Z,100
2022-07-25T03:16:29.208Z,100
2022-07-25T03:17:29.015Z,100
2022-07-25T03:18:29.002Z,100
2022-07-25T03:19:29.121Z,100
2022-07-25T03:20:29.038Z,100
2022-07-25T03:21:29.152Z,100
2022-07-25T03:22:29.072Z,100
2022-07-25T03:23:29.109Z,100
2022-07-25T03:24:29.135Z,100
2022-07-25T03:25:29.226Z,100
2022-07-25T03:26:29.211Z,100
2022-07-25T03:27:29.227Z,100
2022-07-25T03:28:29.214Z,100
2022-07-25T03:29:29.229Z,100
2022-07-25T03:30:29.198Z,100
2022-07-25T03:31:29.292Z,100
2022-07-25T03:32:29.238Z,100
2022-07-25T03:33:29.391Z,100
2022-07-25T03:34:29.239Z,100
2022-07-25T03:35:29.299Z,100
2022-07-25T03:36:29.278Z,100
2022-07-25T03:37:29.499Z,100
2022-07-25T03:38:29.312Z,100
2022-07-25T03:39:29.814Z,100
2022-07-25T03:40:29.410Z,100
2022-07-25T03:41:29.406Z,100
2022-07-25T03:42:34.956Z,100
2022-07-25T03:43:32.095Z,100
2022-07-25T03:44:32.011Z,100
2022-07-25T03:45:32.326Z,100
2022-07-25T03:46:32.095Z,100
2022-07-25T03:47:32.243Z,100
2022-07-25T03:48:32.150Z,100
2022-07-25T03:49:32.117Z,100
2022-07-25T03:50:32.163Z,100
2022-07-25T03:51:32.106Z,100
2022-07-25T03:52:32.178Z,100
2022-07-25T03:53:32.174Z,100
2022-07-25T03:54:32.138Z,100
2022-07-25T03:55:32.244Z,100
2022-07-25T03:57:34.905Z,100
2022-07-25T03:58:34.952Z,100
2022-07-25T03:59:34.964Z,100
2022-07-25T04:00:35.025Z,100
2022-07-25T04:01:35.373Z,100
2022-07-25T04:02:35.276Z,100
2022-07-25T04:03:36.049Z,100
2022-07-25T04:04:35.060Z,100
2022-07-25T04:05:35.458Z,100
2022-07-25T04:06:35.110Z,100
2022-07-25T04:07:35.755Z,100
2022-07-25T04:08:35.109Z,100
2022-07-25T04:09:35.123Z,100
2022-07-25T04:10:35.181Z,100
2022-07-25T04:11:35.532Z,100
2022-07-25T04:12:35.181Z,100
2022-07-25T04:13:35.198Z,100
2022-07-25T04:14:35.214Z,100
2022-07-25T04:15:35.232Z,100
2022-07-25T04:16:35.336Z,100
2022-07-25T04:17:35.299Z,100
2022-07-25T04:18:35.845Z,100
2022-07-25T04:19:35.710Z,100
2022-07-25T04:20:35.762Z,100
2022-07-25T04:21:36.232Z,100
2022-07-25T04:22:35.920Z,100
2022-07-25T04:23:35.887Z,100
2022-07-25T04:24:35.886Z,100
2022-07-25T04:25:35.840Z,100
2022-07-25T04:26:35.849Z,100
2022-07-25T04:27:35.917Z,100
2022-07-25T04:28:35.873Z,100
2022-07-25T04:29:35.886Z,100
2022-07-25T04:30:35.935Z,100
2022-07-25T04:31:36.010Z,100
2022-07-25T04:32:36.015Z,100
2022-07-25T04:33:39.339Z,100
2022-07-25T04:34:36.021Z,100
2022-07-25T04:35:35.988Z,100
2022-07-25T04:36:35.988Z,100
2022-07-25T04:37:36.057Z,100
2022-07-25T04:38:36.073Z,100
2022-07-25T04:39:36.062Z,100
2022-07-25T04:40:36.137Z,100
2022-07-25T04:41:36.118Z,100
2022-07-25T04:42:36.118Z,100
2022-07-25T04:43:36.124Z,100
2022-07-25T04:44:36.148Z,100
2022-07-25T04:45:36.484Z,100
2022-07-25T04:46:36.156Z,100
2022-07-25T04:47:36.215Z,100
2022-07-25T04:48:36.258Z,100
2022-07-25T04:49:36.229Z,100
2022-07-25T04:50:36.233Z,100
2022-07-25T04:51:36.236Z,100
2022-07-25T04:52:36.292Z,100
2022-07-25T04:53:36.358Z,100
2022-07-25T04:54:36.283Z,100
2022-07-25T04:55:36.474Z,100
2022-07-25T04:56:36.493Z,100
2022-07-25T04:57:36.528Z,100
2022-07-25T04:58:36.373Z,100
2022-07-25T04:59:36.383Z,100
2022-07-25T05:00:36.500Z,100
2022-07-25T05:01:36.587Z,100
2022-07-25T05:02:36.728Z,100
2022-07-25T05:03:36.433Z,100
2022-07-25T05:04:36.434Z,100
2022-07-25T05:05:41.147Z,100
2022-07-25T05:06:41.182Z,100
2022-07-25T05:07:41.183Z,100
2022-07-25T05:08:41.190Z,100
2022-07-25T05:09:41.229Z,100
2022-07-25T05:10:41.401Z,100
2022-07-25T05:11:46.606Z,100
2022-07-25T05:12:44.174Z,100
2022-07-25T05:13:44.205Z,100
2022-07-25T05:14:44.299Z,100
2022-07-25T05:15:44.246Z,100
2022-07-25T05:16:44.321Z,100
2022-07-25T05:17:44.473Z,100
2022-07-25T05:18:44.275Z,100
2022-07-25T05:19:44.274Z,100
2022-07-25T05:20:44.445Z,100
2022-07-25T05:21:44.311Z,100
2022-07-25T05:22:44.380Z,100
2022-07-25T05:23:44.512Z,100
2022-07-25T05:24:44.405Z,100
2022-07-25T05:25:44.569Z,100
2022-07-25T05:26:44.449Z,100
2022-07-25T05:27:44.449Z,100
2022-07-25T05:28:44.440Z,100
2022-07-25T05:29:44.442Z,100
2022-07-25T05:30:44.459Z,100
2022-07-25T05:31:44.833Z,100
2022-07-25T05:32:44.511Z,100
2022-07-25T05:33:44.564Z,100
2022-07-25T05:34:44.775Z,100
2022-07-25T05:35:44.600Z,100
2022-07-25T05:36:47.301Z,100
2022-07-25T05:37:44.563Z,100
2022-07-25T05:38:44.595Z,100
2022-07-25T05:39:44.624Z,100
2022-07-25T05:40:44.610Z,100
2022-07-25T05:41:44.627Z,100
2022-07-25T05:42:44.786Z,100
2022-07-25T05:43:44.683Z,100
2022-07-25T05:44:44.732Z,100
2022-07-25T05:45:44.677Z,100
2022-07-25T05:46:44.841Z,100
2022-07-25T05:47:44.707Z,100
2022-07-25T05:48:45.051Z,100
2022-07-25T05:49:44.748Z,100
2022-07-25T05:50:44.772Z,100
2022-07-25T05:51:44.810Z,100
2022-07-25T05:52:44.843Z,100
2022-07-25T05:53:45.042Z,100
2022-07-25T05:54:44.842Z,100
2022-07-25T05:55:44.903Z,100
2022-07-25T05:56:44.930Z,100
2022-07-25T05:57:44.950Z,100
2022-07-25T05:58:45.157Z,100
2022-07-25T05:59:44.995Z,100
2022-07-25T06:00:44.951Z,100
2022-07-25T06:01:45.331Z,100
2022-07-25T06:02:45.166Z,100
2022-07-25T06:03:45.054Z,100
2022-07-25T06:04:45.020Z,100
2022-07-25T06:05:45.973Z,100
2022-07-25T06:06:45.047Z,100
2022-07-25T06:07:45.045Z,100
2022-07-25T06:08:45.359Z,100
2022-07-25T06:09:45.129Z,99.97
2022-07-25T06:10:45.168Z,99.72
2022-07-25T06:11:54.365Z,99.04
2022-07-25T06:12:49.499Z,99.59
2022-07-25T06:13:49.304Z,98.93
2022-07-25T06:14:49.322Z,98.8
2022-07-25T06:16:49.427Z,98.55
2022-07-25T06:17:49.430Z,98.87
2022-07-25T06:18:49.410Z,98.57
2022-07-25T06:19:49.448Z,98.38
2022-07-25T06:20:49.696Z,97.74
2022-07-25T06:21:49.643Z,98.73
2022-07-25T06:22:49.528Z,98.2
2022-07-25T06:23:49.478Z,98.02
2022-07-25T06:24:49.642Z,97.08
2022-07-25T06:25:49.964Z,97.65
2022-07-25T06:26:49.526Z,97.67
2022-07-25T06:27:49.540Z,97.65
2022-07-25T06:28:49.584Z,97.56
2022-07-25T06:29:49.735Z,97.49
2022-07-25T06:30:49.589Z,97.21
2022-07-25T06:31:49.728Z,97.21
2022-07-25T06:32:49.909Z,97.67
2022-07-25T06:33:49.643Z,96.99
2022-07-25T06:34:49.693Z,97.36
2022-07-25T06:35:49.669Z,96.5
2022-07-25T06:36:49.709Z,96
2022-07-25T06:37:49.706Z,96.57
2022-07-25T06:38:49.701Z,96.42
2022-07-25T06:39:49.795Z,95.75
2022-07-25T06:40:49.723Z,95.49
2022-07-25T06:41:49.765Z,95.89
2022-07-25T06:42:49.816Z,96.18
2022-07-25T06:43:49.791Z,94.83
2022-07-25T06:44:49.820Z,95.48
2022-07-25T06:45:49.958Z,95.14
2022-07-25T06:46:50.207Z,95.4
2022-07-25T06:47:50.033Z,94.87
2022-07-25T06:48:50.014Z,95.14
2022-07-25T06:49:49.895Z,94.98
2022-07-25T06:50:50.673Z,94.92
2022-07-25T06:51:49.939Z,95.1
2022-07-25T06:52:49.932Z,95.98
2022-07-25T06:53:49.940Z,94.79
2022-07-25T06:54:49.982Z,94.77
2022-07-25T06:55:50.039Z,93.94
2022-07-25T06:56:50.027Z,94.61
2022-07-25T06:57:50.036Z,94.66
2022-07-25T06:58:50.118Z,94.47
2022-07-25T06:59:50.077Z,94.2
2022-07-25T07:00:50.181Z,94.36
2022-07-25T07:01:51.791Z,94.54
2022-07-25T07:02:54.594Z,93.59
2022-07-25T07:03:51.002Z,93.24
2022-07-25T07:04:50.965Z,93.4
2022-07-25T07:05:50.911Z,92.94
2022-07-25T07:06:50.896Z,93.77
2022-07-25T07:07:51.105Z,92.49
2022-07-25T07:08:50.989Z,93.18
2022-07-25T07:09:51.035Z,93.24
2022-07-25T07:10:50.996Z,92.84
2022-07-25T07:11:51.116Z,92.44
2022-07-25T07:12:51.133Z,92.47
2022-07-25T07:13:51.032Z,92.64
2022-07-25T07:14:51.114Z,92.12
2022-07-25T07:15:51.391Z,91.1
2022-07-25T07:16:51.163Z,91.23
2022-07-25T07:17:51.099Z,92.02
2022-07-25T07:18:51.117Z,91.28
2022-07-25T07:19:51.219Z,90.2
2022-07-25T07:20:51.288Z,90.04
2022-07-25T07:21:51.162Z,90.54
2022-07-25T07:22:51.207Z,89.6
2022-07-25T07:23:53.522Z,90.21
2022-07-25T07:24:51.385Z,90.48
2022-07-25T07:25:51.432Z,89.99
2022-07-25T07:26:51.839Z,89.08
2022-07-25T07:27:51.279Z,88.29
2022-07-25T07:28:51.315Z,88.9
2022-07-25T07:29:51.342Z,89.46
2022-07-25T07:31:16.280Z,88.77
2022-07-25T07:31:52.863Z,89.1
2022-07-25T07:32:52.600Z,88.75
2022-07-25T07:33:52.542Z,87.61
2022-07-25T07:34:52.670Z,87.49
2022-07-25T07:35:52.547Z,86.84
2022-07-25T07:36:52.731Z,87.7
2022-07-25T07:37:52.609Z,88.07
2022-07-25T07:38:52.733Z,86.62
2022-07-25T07:39:52.688Z,85.9
2022-07-25T07:40:53.257Z,87.54
2022-07-25T07:41:52.656Z,85.92
2022-07-25T07:42:52.973Z,87.08
2022-07-25T07:43:52.695Z,85.52
2022-07-25T07:44:52.721Z,86.37
2022-07-25T07:45:52.732Z,85.14
2022-07-25T07:46:52.845Z,85.87
2022-07-25T07:47:53.624Z,84.99
2022-07-25T07:48:52.869Z,84.86
2022-07-25T07:49:52.779Z,84.44
2022-07-25T07:50:52.886Z,84.33
2022-07-25T07:51:52.842Z,84.25
2022-07-25T07:52:53.415Z,83.62
2022-07-25T07:53:52.945Z,84.69
2022-07-25T07:54:56.471Z,83.39
2022-07-25T07:55:55.499Z,83.88
2022-07-25T07:56:55.515Z,82.78
2022-07-25T07:57:55.937Z,83.46
2022-07-25T07:58:55.579Z,84.24
2022-07-25T07:59:55.559Z,82.45
2022-07-25T08:00:55.662Z,81.86
2022-07-25T08:01:56.280Z,81.68
2022-07-25T08:02:55.721Z,81.2
2022-07-25T08:03:55.660Z,81.94
2022-07-25T08:04:55.648Z,81.84
2022-07-25T08:05:55.756Z,81.77
2022-07-25T08:06:55.690Z,81.65
2022-07-25T08:07:55.927Z,81.03
2022-07-25T08:08:55.738Z,82.08
2022-07-25T08:09:55.707Z,81.09
2022-07-25T08:10:58.945Z,81.11
2022-07-25T08:11:55.760Z,81.04
2022-07-25T08:12:55.830Z,80.47
2022-07-25T08:13:55.824Z,80.78
2022-07-25T08:14:55.804Z,81.09
2022-07-25T08:15:57.273Z,79.44
2022-07-25T08:16:55.819Z,80.95
2022-07-25T08:17:55.851Z,78.52
2022-07-25T08:18:55.885Z,78.08
2022-07-25T08:20:02.026Z,79.26
2022-07-25T08:20:56.954Z,77.53
2022-07-25T08:21:56.526Z,77.57
2022-07-25T08:22:56.864Z,77.82
2022-07-25T08:23:56.543Z,78.16
2022-07-25T08:24:56.567Z,78.4
2022-07-25T08:25:56.527Z,79.08
2022-07-25T08:26:56.570Z,77.98
2022-07-25T08:27:56.889Z,78.41
2022-07-25T08:29:17.459Z,77.22
2022-07-25T08:29:57.829Z,77.14
2022-07-25T08:30:58.163Z,76.88
2022-07-25T08:31:57.862Z,77.26
2022-07-25T08:33:00.729Z,77.82
2022-07-25T08:33:57.924Z,76.63
2022-07-25T08:34:58.061Z,77.51
2022-07-25T08:35:57.956Z,74.57
2022-07-25T08:36:57.943Z,75.24
2022-07-25T08:37:58.499Z,75.01
2022-07-25T08:38:58.059Z,75.66
2022-07-25T08:39:57.988Z,76.35
2022-07-25T08:40:58.265Z,74.53
2022-07-25T08:41:58.592Z,74.73
2022-07-25T08:42:58.085Z,74.5
2022-07-25T08:43:58.270Z,77.31
2022-07-25T08:44:59.231Z,76.27
2022-07-25T08:45:59.997Z,74.63
2022-07-25T08:46:59.590Z,75.01
2022-07-25T08:47:58.159Z,75.51
2022-07-25T08:48:58.440Z,74.25
2022-07-25T08:50:02.354Z,74
2022-07-25T08:51:02.032Z,73.41
2022-07-25T08:52:00.930Z,74.82
2022-07-25T08:53:31.065Z,74.5
2022-07-25T08:54:03.109Z,73.6
2022-07-25T08:55:02.934Z,70.58
2022-07-25T08:56:11.530Z,71.84
2022-07-25T08:57:03.908Z,71.19
2022-07-25T08:58:03.784Z,70.87
2022-07-25T08:59:03.894Z,71.38
2022-07-25T09:00:06.140Z,71.81
2022-07-25T09:01:03.873Z,71.47
2022-07-25T09:02:04.061Z,73.14
2022-07-25T09:03:04.222Z,72.74
2022-07-25T09:04:04.509Z,73.07
2022-07-25T09:05:04.434Z,72.53
2022-07-25T09:07:08.257Z,71.82
2022-07-25T09:08:07.366Z,72.2
2022-07-25T09:09:06.280Z,71.91
2022-07-25T09:10:16.815Z,71.83
2022-07-25T09:11:08.584Z,71.3
2022-07-25T09:12:08.596Z,70.97
2022-07-25T09:13:10.371Z,69.52
2022-07-25T09:14:15.083Z,69.37
2022-07-25T09:15:22.249Z,69.3
2022-07-25T09:16:14.767Z,69.4
2022-07-25T09:17:22.465Z,68.65
2022-07-25T09:18:16.976Z,68.21
2022-07-25T09:19:20.042Z,68.6
2022-07-25T09:20:18.600Z,68.64
2022-07-25T09:21:16.757Z,68.76
2022-07-25T09:22:16.925Z,67.92
2022-07-25T09:24:17.716Z,68.58
2022-07-25T09:26:19.979Z,70.31
2022-07-25T09:27:20.121Z,71.49
2022-07-25T09:28:20.031Z,72.51
2022-07-25T09:30:23.709Z,70.13
2022-07-25T09:32:28.088Z,68.81
2022-07-25T09:33:28.934Z,68.96
2022-07-25T09:35:32.212Z,68.15
2022-07-25T09:36:31.549Z,69.33
2022-07-25T09:37:31.583Z,69.27
2022-07-25T09:38:31.552Z,66.44
2022-07-25T09:40:33.741Z,66.61
2022-07-25T09:41:34.953Z,67.93
2022-07-25T09:42:33.814Z,66.9
2022-07-25T09:43:42.514Z,70.42
2022-07-25T09:44:34.339Z,67.14
2022-07-25T09:45:34.236Z,68.49
2022-07-25T09:46:34.318Z,68.98
2022-07-25T09:47:36.013Z,65.91
2022-07-25T09:48:35.222Z,66.15
2022-07-25T09:49:38.990Z,66.25
2022-07-25T09:50:35.643Z,68.81
2022-07-25T09:51:35.939Z,65.98
2022-07-25T09:52:37.846Z,66.34
2022-07-25T09:53:35.776Z,66.81
2022-07-25T09:54:35.952Z,66.08
2022-07-25T09:55:35.747Z,62.89
2022-07-25T09:56:35.833Z,63.43
2022-07-25T09:57:35.785Z,64.83
2022-07-25T09:58:35.794Z,62.21
2022-07-25T09:59:36.091Z,63.17
2022-07-25T10:00:35.841Z,65.57
2022-07-25T10:01:39.216Z,63.83
2022-07-25T10:06:50.239Z,61.98
2022-07-25T10:07:47.897Z,62.02
2022-07-25T10:08:47.608Z,62
2022-07-25T10:09:49.302Z,64.56
2022-07-25T10:10:47.101Z,64.63
2022-07-25T10:13:52.860Z,61.69
2022-07-25T10:15:55.641Z,65.06
2022-07-25T10:16:55.666Z,61.5
2022-07-25T10:18:04.562Z,61.81
2022-07-25T10:18:57.229Z,63.37
2022-07-25T10:19:58.930Z,62.13
2022-07-25T10:21:24.559Z,63.65
2022-07-25T10:21:57.777Z,64.82
2022-07-25T10:22:58.468Z,62.96
2022-07-25T10:24:05.440Z,62.81
2022-07-25T10:25:09.730Z,63.14
2022-07-25T10:26:13.983Z,61.12
2022-07-25T10:27:12.110Z,61.11
2022-07-25T10:28:10.877Z,62.35
2022-07-25T10:29:11.619Z,62.49
2022-07-25T10:30:18.944Z,65.09
2022-07-25T10:32:17.584Z,61.34
2022-07-25T10:33:18.312Z,61.78
2022-07-25T10:35:19.030Z,63.13
2022-07-25T10:36:19.740Z,64.4
2022-07-25T10:37:19.176Z,60.85
2022-07-25T10:38:24.975Z,62.08
2022-07-25T10:39:21.583Z,62.19
2022-07-25T10:40:25.281Z,63.66
2022-07-25T10:41:23.557Z,63.55
2022-07-25T10:42:22.174Z,62.6
2022-07-25T10:43:22.570Z,64.56
2022-07-25T10:44:21.758Z,66.39
2022-07-25T10:45:21.576Z,66.22
2022-07-25T10:46:21.706Z,64.56
2022-07-25T10:47:23.164Z,64.8
2022-07-25T10:48:29.673Z,64.86
2022-07-25T10:49:31.805Z,63.46
2022-07-25T10:50:54.425Z,64.46
2022-07-25T10:51:32.901Z,64.56
2022-07-25T10:52:31.948Z,65.29
2022-07-25T10:54:35.740Z,63.58
2022-07-25T10:55:35.541Z,64.48
2022-07-25T10:56:36.579Z,66.86
2022-07-25T10:57:35.759Z,64.14
2022-07-25T10:58:41.793Z,63.7
2022-07-25T10:59:39.275Z,65.82
2022-07-25T11:00:42.934Z,68.58
2022-07-25T11:01:39.186Z,67.65
2022-07-25T11:02:39.646Z,67.24
2022-07-25T11:03:39.896Z,67.85
2022-07-25T11:04:39.284Z,65.83
2022-07-25T11:05:46.159Z,66.58
2022-07-25T11:06:43.016Z,65.1
2022-07-25T11:08:19.091Z,66.18
2022-07-25T11:08:44.111Z,68.39
2022-07-25T11:09:44.021Z,66.28
2022-07-25T11:10:50.277Z,67.95
2022-07-25T11:11:48.550Z,67.97
2022-07-25T11:12:47.227Z,68.77
2022-07-25T11:13:47.049Z,67.93
2022-07-25T11:14:47.116Z,69
2022-07-25T11:15:46.986Z,69.97
2022-07-25T11:16:48.265Z,68.28
2022-07-25T11:17:50.952Z,67.31
2022-07-25T11:18:47.737Z,67.64
2022-07-25T11:20:59.849Z,66.97
2022-07-25T11:22:00.188Z,67.38
2022-07-25T11:22:56.391Z,66.08
2022-07-25T11:23:56.451Z,66.13
2022-07-25T11:24:57.000Z,66.64
2022-07-25T11:27:00.838Z,65.43
2022-07-25T11:28:01.259Z,64.72
2022-07-25T11:29:00.874Z,64.49
2022-07-25T11:30:10.617Z,64.56
2022-07-25T11:31:04.868Z,63.39
2022-07-25T11:32:03.312Z,63.49
2022-07-25T11:33:01.913Z,65.25
2022-07-25T11:34:02.095Z,63.26
2022-07-25T11:35:01.893Z,63.02
2022-07-25T11:36:02.272Z,63.71
2022-07-25T11:37:03.297Z,62.72
2022-07-25T11:38:02.718Z,62.94
2022-07-25T11:39:02.039Z,63.6
2022-07-25T11:40:02.182Z,63.29
2022-07-25T11:41:02.057Z,61.77
2022-07-25T11:42:09.436Z,61.51
2022-07-25T11:43:05.633Z,60.66
2022-07-25T11:44:05.694Z,62.43
2022-07-25T11:45:15.474Z,61.61
2022-07-25T11:46:07.604Z,62.81
2022-07-25T11:47:08.345Z,63.2
2022-07-25T11:48:10.711Z,63.16
2022-07-25T11:49:07.414Z,63.66
2022-07-25T11:50:07.218Z,61.83
2022-07-25T11:51:14.862Z,63.07
2022-07-25T11:52:18.003Z,63.76
2022-07-25T11:53:13.293Z,63.73
2022-07-25T11:54:10.441Z,63.02
2022-07-25T11:55:10.838Z,63.51
2022-07-25T11:56:40.687Z,63.18
2022-07-25T11:57:19.741Z,62.98
2022-07-25T11:58:17.251Z,63.31
2022-07-25T11:59:15.961Z,62.25
2022-07-25T12:00:19.904Z,60.89
2022-07-25T12:01:16.125Z,61.34
2022-07-25T12:03:20.581Z,61.93
2022-07-25T12:04:18.806Z,61.74
2022-07-25T12:06:29.053Z,61.95
2022-07-25T12:08:36.681Z,62.32
2022-07-25T12:09:32.892Z,64.05
2022-07-25T12:10:34.083Z,63.07
2022-07-25T12:11:33.216Z,61.22
2022-07-25T12:13:37.564Z,63.67
2022-07-25T12:14:43.449Z,63.65
2022-07-25T12:15:40.737Z,62.54
2022-07-25T12:16:39.819Z,62.64
2022-07-25T12:17:40.117Z,63.41
2022-07-25T12:18:39.722Z,62.8
2022-07-25T12:19:39.779Z,62.21
2022-07-25T12:20:41.026Z,61.69
2022-07-25T12:21:39.746Z,61.04
2022-07-25T12:22:39.780Z,62.24
2022-07-25T12:23:39.789Z,63.22
2022-07-25T12:24:39.803Z,60.93
2022-07-25T12:25:43.432Z,61.35
2022-07-25T12:26:39.836Z,61.75
2022-07-25T12:27:39.946Z,61.75
2022-07-25T12:28:40.165Z,60.86
2022-07-25T12:29:39.858Z,61.19
2022-07-25T12:30:40.865Z,60.62
2022-07-25T12:31:39.913Z,59.88
2022-07-25T12:32:39.917Z,60.46
2022-07-25T12:33:39.900Z,61.16
2022-07-25T12:34:39.951Z,57.34
2022-07-25T12:35:41.101Z,57.12
2022-07-25T12:36:40.014Z,56.49
2022-07-25T12:37:40.533Z,58.51
2022-07-25T12:38:40.020Z,57.52
2022-07-25T12:39:40.130Z,60.86
2022-07-25T12:40:39.978Z,57.27
2022-07-25T12:41:40.017Z,57.56
2022-07-25T12:42:40.253Z,58.43
2022-07-25T12:43:40.097Z,58.41
2022-07-25T12:44:40.040Z,58.34
2022-07-25T12:45:40.281Z,58.83
2022-07-25T12:46:40.390Z,59.78
2022-07-25T12:47:40.282Z,60.49
2022-07-25T12:48:40.230Z,61.62
2022-07-25T12:49:40.103Z,62.25
2022-07-25T12:50:40.369Z,61.33
2022-07-25T12:51:40.122Z,60.79
2022-07-25T12:52:40.705Z,61.04
2022-07-25T12:53:42.635Z,62.3
2022-07-25T12:54:40.217Z,61.86
2022-07-25T12:55:40.669Z,64.01
2022-07-25T12:56:40.218Z,62.59
2022-07-25T12:57:40.678Z,61.91
2022-07-25T12:58:40.216Z,59.85
2022-07-25T12:59:40.391Z,57.12
2022-07-25T13:00:40.691Z,56.63
2022-07-25T13:01:40.355Z,56.23
2022-07-25T13:02:40.378Z,56.03
2022-07-25T13:03:40.460Z,56.01
2022-07-25T13:04:40.406Z,63.01
2022-07-25T13:05:40.402Z,61.14
2022-07-25T13:06:40.368Z,56.35
2022-07-25T13:07:40.317Z,56.41
2022-07-25T13:08:40.382Z,50.83
2022-07-25T13:09:40.390Z,55.45
2022-07-25T13:10:40.418Z,57.97
2022-07-25T13:11:40.393Z,58.42
2022-07-25T13:12:40.411Z,55.47
2022-07-25T13:13:40.428Z,53.88
2022-07-25T13:14:40.461Z,52.28
2022-07-25T13:15:40.585Z,51.36
2022-07-25T13:16:40.505Z,48.54
2022-07-25T13:17:40.527Z,49.01
2022-07-25T13:18:40.671Z,48.68
2022-07-25T13:19:40.599Z,48.11
2022-07-25T13:20:40.488Z,49.55
2022-07-25T13:21:40.520Z,49.97
2022-07-25T13:22:40.531Z,51.77
2022-07-25T13:23:40.722Z,54.25
2022-07-25T13:24:40.592Z,56.44
2022-07-25T13:25:40.552Z,52.8
2022-07-25T13:26:40.754Z,50.31
2022-07-25T13:27:40.582Z,49.58
2022-07-25T13:28:40.602Z,50.65
2022-07-25T13:29:40.686Z,50.83
2022-07-25T13:30:40.634Z,51.82
2022-07-25T13:31:41.405Z,50.58
2022-07-25T13:32:40.789Z,49.8
2022-07-25T13:33:40.687Z,49.11
2022-07-25T13:34:40.718Z,51.82
2022-07-25T13:35:40.761Z,49.62
2022-07-25T13:36:40.729Z,48.76
2022-07-25T13:37:40.779Z,50.56
2022-07-25T13:38:40.745Z,48.6
2022-07-25T13:39:40.745Z,50.49
2022-07-25T13:40:41.082Z,50.26
2022-07-25T13:41:40.799Z,50.29
2022-07-25T13:42:40.838Z,50.73
2022-07-25T13:43:40.820Z,50.4
2022-07-25T13:44:41.002Z,49.04
2022-07-25T13:45:41.489Z,49.19
2022-07-25T13:46:42.683Z,51.32